Oscoda, MI (48750)

10:23 AM EDT on May 05, 2015 (GMT -0400)
RAWS | | Change Station
CLOSE
Current Station
Personal Weather Station
Location: National City, MI
Elevation: 704 ft
Nearby Weather Stations

Elev 704 ft 44.38 °N, 83.60 °W | Updated 21 minutes ago

Clear
Clear
50 °F
Feels Like 50 °F
N
3
Wind Variable Wind from North
Gusts 7.0 mph

Today
High -- | Low -- °F
--% Chance of Precip.
Yesterday
High -- | Low -- °F
Precip. -- in
6:19 AM 8:42 PM
Full, 98% visible
Pressure 30.33 in
Visibility 10.0 miles
Clouds Clear
Dew Point 39 °F
Humidity 66%
Rainfall in
Snow Depth Not available.
UV 5 out of 12
Pollen 10.50 out of 12
Air Quality Not available.
Flu Activity Regional
METAR KOSC 051413Z AUTO 35005KT 10SM CLR 10/04 A3033 RMK AO2 T01050046

More Conditions Fewer Conditions

Pressure 30.33 in
Visibility 10.0 miles
Clouds Clear
Dew Point 39 °F
Humidity 66%
Rainfall in
Snow Depth Not available.
UV 5 out of 12
Pollen 10.50 out of 12
Air Quality Not available.
Flu Activity Regional
METAR KOSC 051413Z AUTO 35005KT 10SM CLR 10/04 A3033 RMK AO2 T01050046

More Conditions Fewer Conditions

Nowcast | as of 10:00 am EDT on May 5, 2015

At 11 am...partly cloudy. Temperature 54. Northeast winds 5 mph. At 1 PM...partly cloudy. Temperature 58. East winds 6 mph. At 3 PM...partly cloudy. Temperature 58. East winds 5 mph. At 5 PM...partly cloudy. Temperature 57. East winds 5 mph.

×

10-Day Weather Forecast

Almanac

Astronomy

May. 05, 2015 Rise Set
Actual Time
Civil Twilight
Nautical Twilight
Astronomical Twilight
Moon
Length of Visible Light
Length of Day
Tomorrow will be .
, % of the Moon is Illuminated

Today's Extremes

State Highs State Lows

Community

WunderPhotos

Upload Photos

1,818,903 photos uploaded!

WunderBlogs® & News

Nearby

Air Quality

  Air Quality AQ Index Pollutant
Not available.

Snow Depth

Station Depth Elevation

Earthquake Activity

City Distance Mag. Time & Date
Minimum magnitude displayed is 2.5.

Coastal Water Temperatures

Place Temperature

Stations

Nearby Weather Stations

Station Location Temp. Windchill Dew Point Humidity Wind Precip. Elev Updated Type